sensor_id;sensor_type;location;lat;lon;timestamp;temperature;humidity
9699;DHT22;10089;47.876;8.346;2024-03-23T00:53:33;9.30;1.00
9699;DHT22;10089;47.876;8.346;2024-03-23T00:55:59;9.20;25.20
9699;DHT22;10089;47.876;8.346;2024-03-23T00:58:25;9.20;1.00
9699;DHT22;10089;47.876;8.346;2024-03-23T01:00:51;9.20;99.90
9699;DHT22;10089;47.876;8.346;2024-03-23T01:03:16;9.40;99.90
9699;DHT22;10089;47.876;8.346;2024-03-23T01:05:42;9.50;1.00
9699;DHT22;10089;47.876;8.346;2024-03-23T01:08:07;9.50;99.90
9699;DHT22;10089;47.876;8.346;2024-03-23T01:10:33;9.60;1.00
9699;DHT22;10089;47.876;8.346;2024-03-23T01:12:58;9.70;1.00
9699;DHT22;10089;47.876;8.346;2024-03-23T01:15:24;9.60;1.00
9699;DHT22;10089;47.876;8.346;2024-03-23T01:17:49;9.70;99.90
9699;DHT22;10089;47.876;8.346;2024-03-23T01:20:15;9.70;99.90
9699;DHT22;10089;47.876;8.346;2024-03-23T01:22:40;9.70;99.90
9699;DHT22;10089;47.876;8.346;2024-03-23T01:25:06;9.70;99.90
9699;DHT22;10089;47.876;8.346;2024-03-23T01:27:32;9.80;99.90
9699;DHT22;10089;47.876;8.346;2024-03-23T01:29:59;9.80;1.00
9699;DHT22;10089;47.876;8.346;2024-03-23T01:32:25;9.80;1.00
9699;DHT22;10089;47.876;8.346;2024-03-23T01:34:50;9.80;99.90
9699;DHT22;10089;47.876;8.346;2024-03-23T01:37:16;9.80;1.00
9699;DHT22;10089;47.876;8.346;2024-03-23T01:39:41;9.80;1.00
9699;DHT22;10089;47.876;8.346;2024-03-23T01:42:07;9.90;1.00
9699;DHT22;10089;47.876;8.346;2024-03-23T01:44:32;9.90;99.90
9699;DHT22;10089;47.876;8.346;2024-03-23T01:46:58;10.00;99.90
9699;DHT22;10089;47.876;8.346;2024-03-23T01:49:24;9.70;1.00
9699;DHT22;10089;47.876;8.346;2024-03-23T01:51:50;10.10;99.90
9699;DHT22;10089;47.876;8.346;2024-03-23T01:54:15;10.10;99.90
9699;DHT22;10089;47.876;8.346;2024-03-23T01:56:41;10.10;99.90
9699;DHT22;10089;47.876;8.346;2024-03-23T01:59:07;10.10;1.00
9699;DHT22;10089;47.876;8.346;2024-03-23T02:01:36;10.10;1.00
9699;DHT22;10089;47.876;8.346;2024-03-23T02:04:02;10.20;1.00
9699;DHT22;10089;47.876;8.346;2024-03-23T02:06:28;10.30;1.00
9699;DHT22;10089;47.876;8.346;2024-03-23T02:08:54;10.30;99.90
9699;DHT22;10089;47.876;8.346;2024-03-23T02:11:20;10.50;1.00
9699;DHT22;10089;47.876;8.346;2024-03-23T02:13:46;10.50;1.00
9699;DHT22;10089;47.876;8.346;2024-03-23T02:16:11;10.50;99.90
9699;DHT22;10089;47.876;8.346;2024-03-23T02:18:38;10.70;1.00
9699;DHT22;10089;47.876;8.346;2024-03-23T02:21:04;10.70;99.90
9699;DHT22;10089;47.876;8.346;2024-03-23T02:23:29;10.70;1.00
9699;DHT22;10089;47.876;8.346;2024-03-23T02:25:55;10.70;1.00
9699;DHT22;10089;47.876;8.346;2024-03-23T02:28:21;10.60;1.00
9699;DHT22;10089;47.876;8.346;2024-03-23T02:30:48;10.50;23.20
9699;DHT22;10089;47.876;8.346;2024-03-23T02:33:14;10.50;28.10
9699;DHT22;10089;47.876;8.346;2024-03-23T02:35:40;10.50;1.00
9699;DHT22;10089;47.876;8.346;2024-03-23T02:38:05;10.50;1.00
9699;DHT22;10089;47.876;8.346;2024-03-23T02:40:31;10.40;1.00
9699;DHT22;10089;47.876;8.346;2024-03-23T02:42:56;10.30;1.00
9699;DHT22;10089;47.876;8.346;2024-03-23T02:45:22;10.40;1.00
9699;DHT22;10089;47.876;8.346;2024-03-23T02:47:47;10.50;1.00
9699;DHT22;10089;47.876;8.346;2024-03-23T02:50:20;10.60;1.00
9699;DHT22;10089;47.876;8.346;2024-03-23T02:52:46;10.60;99.90
9699;DHT22;10089;47.876;8.346;2024-03-23T02:55:11;10.60;99.90
9699;DHT22;10089;47.876;8.346;2024-03-23T02:57:37;10.60;8.90
9699;DHT22;10089;47.876;8.346;2024-03-23T03:00:03;10.60;1.00
9699;DHT22;10089;47.876;8.346;2024-03-23T03:02:29;10.60;1.00
9699;DHT22;10089;47.876;8.346;2024-03-23T03:04:54;10.60;1.00
9699;DHT22;10089;47.876;8.346;2024-03-23T03:07:20;10.50;1.00
9699;DHT22;10089;47.876;8.346;2024-03-23T03:09:45;10.40;25.40
9699;DHT22;10089;47.876;8.346;2024-03-23T03:12:11;10.50;1.00
9699;DHT22;10089;47.876;8.346;2024-03-23T03:14:37;10.40;1.00
9699;DHT22;10089;47.876;8.346;2024-03-23T03:17:02;10.40;1.00
9699;DHT22;10089;47.876;8.346;2024-03-23T03:19:28;10.40;3.30
9699;DHT22;10089;47.876;8.346;2024-03-23T03:21:54;10.30;99.90
9699;DHT22;10089;47.876;8.346;2024-03-23T03:24:19;10.20;1.00
9699;DHT22;10089;47.876;8.346;2024-03-23T03:26:45;10.20;99.90
9699;DHT22;10089;47.876;8.346;2024-03-23T03:29:10;10.20;1.00
9699;DHT22;10089;47.876;8.346;2024-03-23T03:31:37;10.20;99.90
9699;DHT22;10089;47.876;8.346;2024-03-23T03:34:03;10.20;99.90
9699;DHT22;10089;47.876;8.346;2024-03-23T03:36:28;10.30;35.90
9699;DHT22;10089;47.876;8.346;2024-03-23T03:38:54;10.30;99.90
9699;DHT22;10089;47.876;8.346;2024-03-23T03:41:20;10.20;1.00
9699;DHT22;10089;47.876;8.346;2024-03-23T03:43:45;10.20;99.90
9699;DHT22;10089;47.876;8.346;2024-03-23T03:46:11;10.30;99.90
9699;DHT22;10089;47.876;8.346;2024-03-23T03:48:37;10.20;99.90
9699;DHT22;10089;47.876;8.346;2024-03-23T03:51:03;10.20;1.00
9699;DHT22;10089;47.876;8.346;2024-03-23T03:53:29;10.20;1.00
9699;DHT22;10089;47.876;8.346;2024-03-23T03:55:55;10.20;1.00
9699;DHT22;10089;47.876;8.346;2024-03-23T03:58:21;10.10;99.90
9699;DHT22;10089;47.876;8.346;2024-03-23T04:00:46;10.10;99.90
9699;DHT22;10089;47.876;8.346;2024-03-23T04:03:12;10.00;1.00
9699;DHT22;10089;47.876;8.346;2024-03-23T04:05:37;10.10;99.90
9699;DHT22;10089;47.876;8.346;2024-03-23T04:08:03;10.20;1.00
9699;DHT22;10089;47.876;8.346;2024-03-23T04:10:30;10.20;1.00
9699;DHT22;10089;47.876;8.346;2024-03-23T04:12:55;10.30;99.90
9699;DHT22;10089;47.876;8.346;2024-03-23T04:15:21;10.40;1.00
9699;DHT22;10089;47.876;8.346;2024-03-23T04:17:47;10.40;99.90
9699;DHT22;10089;47.876;8.346;2024-03-23T04:20:13;10.30;1.00
9699;DHT22;10089;47.876;8.346;2024-03-23T04:22:42;10.30;99.90
9699;DHT22;10089;47.876;8.346;2024-03-23T04:25:09;10.40;1.00
9699;DHT22;10089;47.876;8.346;2024-03-23T04:27:39;10.30;1.00
9699;DHT22;10089;47.876;8.346;2024-03-23T04:30:05;10.20;99.90
9699;DHT22;10089;47.876;8.346;2024-03-23T04:32:36;10.00;1.00
9699;DHT22;10089;47.876;8.346;2024-03-23T04:35:01;9.80;1.00
9699;DHT22;10089;47.876;8.346;2024-03-23T04:37:28;9.60;1.00
9699;DHT22;10089;47.876;8.346;2024-03-23T04:39:54;9.60;1.00
9699;DHT22;10089;47.876;8.346;2024-03-23T04:42:19;9.60;1.00
9699;DHT22;10089;47.876;8.346;2024-03-23T04:44:45;9.60;1.00
9699;DHT22;10089;47.876;8.346;2024-03-23T04:47:11;9.60;1.00
9699;DHT22;10089;47.876;8.346;2024-03-23T04:49:36;9.50;1.00
9699;DHT22;10089;47.876;8.346;2024-03-23T04:52:05;9.20;1.00
9699;DHT22;10089;47.876;8.346;2024-03-23T04:54:31;9.30;1.00
9699;DHT22;10089;47.876;8.346;2024-03-23T04:56:58;9.20;1.00
9699;DHT22;10089;47.876;8.346;2024-03-23T04:59:23;9.10;1.00
9699;DHT22;10089;47.876;8.346;2024-03-23T05:01:49;8.90;18.50
9699;DHT22;10089;47.876;8.346;2024-03-23T05:04:14;8.90;48.40
9699;DHT22;10089;47.876;8.346;2024-03-23T05:06:40;8.80;37.20
9699;DHT22;10089;47.876;8.346;2024-03-23T05:09:05;8.80;78.40
9699;DHT22;10089;47.876;8.346;2024-03-23T05:11:33;8.70;92.80
9699;DHT22;10089;47.876;8.346;2024-03-23T05:13:59;8.80;87.70
9699;DHT22;10089;47.876;8.346;2024-03-23T05:16:24;8.80;95.40
9699;DHT22;10089;47.876;8.346;2024-03-23T05:18:50;8.90;76.30
9699;DHT22;10089;47.876;8.346;2024-03-23T05:21:15;8.90;85.90
9699;DHT22;10089;47.876;8.346;2024-03-23T05:23:41;8.80;95.80
9699;DHT22;10089;47.876;8.346;2024-03-23T05:26:08;8.90;56.10
9699;DHT22;10089;47.876;8.346;2024-03-23T05:28:35;8.90;79.50
9699;DHT22;10089;47.876;8.346;2024-03-23T05:31:00;8.90;94.90
9699;DHT22;10089;47.876;8.346;2024-03-23T05:33:26;9.00;63.50
9699;DHT22;10089;47.876;8.346;2024-03-23T05:35:59;9.00;92.70
9699;DHT22;10089;47.876;8.346;2024-03-23T05:38:25;8.90;98.20
9699;DHT22;10089;47.876;8.346;2024-03-23T05:41:00;9.00;82.10
9699;DHT22;10089;47.876;8.346;2024-03-23T05:43:26;9.00;87.20
9699;DHT22;10089;47.876;8.346;2024-03-23T05:45:56;9.00;99.90
9699;DHT22;10089;47.876;8.346;2024-03-23T05:48:22;8.90;99.90
9699;DHT22;10089;47.876;8.346;2024-03-23T05:50:51;8.90;99.90
9699;DHT22;10089;47.876;8.346;2024-03-23T05:53:17;8.80;99.90
9699;DHT22;10089;47.876;8.346;2024-03-23T05:55:43;8.80;99.90
9699;DHT22;10089;47.876;8.346;2024-03-23T05:58:09;8.70;1.00
9699;DHT22;10089;47.876;8.346;2024-03-23T06:00:34;8.70;1.00
9699;DHT22;10089;47.876;8.346;2024-03-23T06:03:00;8.70;1.00
9699;DHT22;10089;47.876;8.346;2024-03-23T06:05:26;8.60;1.00
9699;DHT22;10089;47.876;8.346;2024-03-23T06:07:52;8.50;1.00
9699;DHT22;10089;47.876;8.346;2024-03-23T06:10:18;8.50;1.00
9699;DHT22;10089;47.876;8.346;2024-03-23T06:12:45;8.40;1.00
9699;DHT22;10089;47.876;8.346;2024-03-23T06:15:11;8.40;99.90
9699;DHT22;10089;47.876;8.346;2024-03-23T06:17:38;8.40;99.90
9699;DHT22;10089;47.876;8.346;2024-03-23T06:20:05;8.30;99.90
9699;DHT22;10089;47.876;8.346;2024-03-23T06:22:33;8.30;99.90
9699;DHT22;10089;47.876;8.346;2024-03-23T06:24:59;8.30;99.90
9699;DHT22;10089;47.876;8.346;2024-03-23T06:27:25;8.20;99.90
9699;DHT22;10089;47.876;8.346;2024-03-23T06:29:51;8.20;99.90
9699;DHT22;10089;47.876;8.346;2024-03-23T06:32:17;8.20;99.90
9699;DHT22;10089;47.876;8.346;2024-03-23T06:34:42;8.20;99.90
9699;DHT22;10089;47.876;8.346;2024-03-23T06:37:08;8.20;99.90
9699;DHT22;10089;47.876;8.346;2024-03-23T06:39:38;8.20;99.90
9699;DHT22;10089;47.876;8.346;2024-03-23T06:42:04;8.20;99.90
9699;DHT22;10089;47.876;8.346;2024-03-23T06:44:30;8.20;99.90
9699;DHT22;10089;47.876;8.346;2024-03-23T06:46:56;8.20;99.90
9699;DHT22;10089;47.876;8.346;2024-03-23T06:49:25;8.20;1.00
9699;DHT22;10089;47.876;8.346;2024-03-23T06:51:51;8.20;1.00
9699;DHT22;10089;47.876;8.346;2024-03-23T06:54:17;8.20;99.90
9699;DHT22;10089;47.876;8.346;2024-03-23T06:56:44;8.20;1.00
9699;DHT22;10089;47.876;8.346;2024-03-23T06:59:10;7.90;1.00
9699;DHT22;10089;47.876;8.346;2024-03-23T07:01:35;7.70;1.00
9699;DHT22;10089;47.876;8.346;2024-03-23T07:04:01;7.60;1.00
9699;DHT22;10089;47.876;8.346;2024-03-23T07:06:26;7.30;1.00
9699;DHT22;10089;47.876;8.346;2024-03-23T07:08:52;7.10;1.00
9699;DHT22;10089;47.876;8.346;2024-03-23T07:11:22;6.90;1.00
9699;DHT22;10089;47.876;8.346;2024-03-23T07:13:52;6.80;1.00
9699;DHT22;10089;47.876;8.346;2024-03-23T07:16:18;6.90;1.00
9699;DHT22;10089;47.876;8.346;2024-03-23T07:18:43;7.10;1.00
9699;DHT22;10089;47.876;8.346;2024-03-23T07:21:09;7.00;1.00
9699;DHT22;10089;47.876;8.346;2024-03-23T07:23:35;6.70;1.00
9699;DHT22;10089;47.876;8.346;2024-03-23T07:28:27;6.30;1.00
9699;DHT22;10089;47.876;8.346;2024-03-23T07:31:09;6.20;1.00
9699;DHT22;10089;47.876;8.346;2024-03-23T07:33:36;6.10;1.00
9699;DHT22;10089;47.876;8.346;2024-03-23T07:36:02;6.00;1.00
9699;DHT22;10089;47.876;8.346;2024-03-23T07:38:29;5.80;1.00
9699;DHT22;10089;47.876;8.346;2024-03-23T07:41:08;5.80;1.00
9699;DHT22;10089;47.876;8.346;2024-03-23T07:43:35;5.80;1.00
9699;DHT22;10089;47.876;8.346;2024-03-23T07:46:00;5.90;1.00
9699;DHT22;10089;47.876;8.346;2024-03-23T07:48:27;5.80;1.00
9699;DHT22;10089;47.876;8.346;2024-03-23T07:51:00;5.70;1.00
9699;DHT22;10089;47.876;8.346;2024-03-23T07:53:27;5.70;1.00
9699;DHT22;10089;47.876;8.346;2024-03-23T07:55:57;5.60;1.00
9699;DHT22;10089;47.876;8.346;2024-03-23T07:58:23;5.70;1.00
9699;DHT22;10089;47.876;8.346;2024-03-23T08:00:49;5.70;1.00
9699;DHT22;10089;47.876;8.346;2024-03-23T08:03:14;5.50;1.00
9699;DHT22;10089;47.876;8.346;2024-03-23T08:05:40;5.50;1.00
9699;DHT22;10089;47.876;8.346;2024-03-23T08:08:05;5.50;1.00
9699;DHT22;10089;47.876;8.346;2024-03-23T08:10:31;5.50;1.00
9699;DHT22;10089;47.876;8.346;2024-03-23T08:12:57;5.50;1.00
9699;DHT22;10089;47.876;8.346;2024-03-23T08:15:22;5.50;1.00
9699;DHT22;10089;47.876;8.346;2024-03-23T08:17:49;5.30;1.00
9699;DHT22;10089;47.876;8.346;2024-03-23T08:20:14;5.30;1.00
9699;DHT22;10089;47.876;8.346;2024-03-23T08:22:40;5.10;1.00
9699;DHT22;10089;47.876;8.346;2024-03-23T08:25:06;5.10;1.00
9699;DHT22;10089;47.876;8.346;2024-03-23T08:27:31;5.10;1.00
9699;DHT22;10089;47.876;8.346;2024-03-23T08:29:58;5.10;1.00
9699;DHT22;10089;47.876;8.346;2024-03-23T08:32:23;5.10;1.00
9699;DHT22;10089;47.876;8.346;2024-03-23T08:34:49;5.10;1.00
9699;DHT22;10089;47.876;8.346;2024-03-23T08:37:15;5.20;1.00
9699;DHT22;10089;47.876;8.346;2024-03-23T08:39:43;5.50;64.60
9699;DHT22;10089;47.876;8.346;2024-03-23T08:42:08;6.20;1.00
9699;DHT22;10089;47.876;8.346;2024-03-23T08:44:34;5.50;1.00
9699;DHT22;10089;47.876;8.346;2024-03-23T08:46:59;5.40;1.00
9699;DHT22;10089;47.876;8.346;2024-03-23T08:49:26;5.30;1.00
9699;DHT22;10089;47.876;8.346;2024-03-23T08:51:52;5.20;1.00
9699;DHT22;10089;47.876;8.346;2024-03-23T08:54:17;5.30;1.00
9699;DHT22;10089;47.876;8.346;2024-03-23T08:56:45;5.60;1.00
9699;DHT22;10089;47.876;8.346;2024-03-23T08:59:11;6.10;1.00
9699;DHT22;10089;47.876;8.346;2024-03-23T09:01:37;5.90;1.00
9699;DHT22;10089;47.876;8.346;2024-03-23T09:04:03;6.00;1.00
9699;DHT22;10089;47.876;8.346;2024-03-23T09:06:29;6.30;1.00
9699;DHT22;10089;47.876;8.346;2024-03-23T09:08:55;6.80;99.90
9699;DHT22;10089;47.876;8.346;2024-03-23T09:11:20;7.00;1.00
9699;DHT22;10089;47.876;8.346;2024-03-23T09:13:46;7.00;16.20
9699;DHT22;10089;47.876;8.346;2024-03-23T09:16:11;7.20;1.00
9699;DHT22;10089;47.876;8.346;2024-03-23T09:18:37;7.40;99.90
9699;DHT22;10089;47.876;8.346;2024-03-23T09:21:04;7.40;99.90
9699;DHT22;10089;47.876;8.346;2024-03-23T09:23:35;7.20;1.00
9699;DHT22;10089;47.876;8.346;2024-03-23T09:26:04;7.30;1.00
9699;DHT22;10089;47.876;8.346;2024-03-23T09:28:30;7.20;99.90
9699;DHT22;10089;47.876;8.346;2024-03-23T09:31:02;7.50;99.90
9699;DHT22;10089;47.876;8.346;2024-03-23T09:33:28;7.80;1.00
9699;DHT22;10089;47.876;8.346;2024-03-23T09:35:55;7.40;15.80
9699;DHT22;10089;47.876;8.346;2024-03-23T09:38:22;7.50;99.90
9699;DHT22;10089;47.876;8.346;2024-03-23T09:40:50;7.70;1.00
9699;DHT22;10089;47.876;8.346;2024-03-23T09:43:18;7.60;1.00
9699;DHT22;10089;47.876;8.346;2024-03-23T09:45:45;7.50;93.30
9699;DHT22;10089;47.876;8.346;2024-03-23T09:48:11;7.60;1.00
9699;DHT22;10089;47.876;8.346;2024-03-23T09:50:42;8.10;1.00
9699;DHT22;10089;47.876;8.346;2024-03-23T09:53:08;8.30;17.20
9699;DHT22;10089;47.876;8.346;2024-03-23T09:55:35;8.40;1.00
9699;DHT22;10089;47.876;8.346;2024-03-23T09:58:01;8.20;1.00
9699;DHT22;10089;47.876;8.346;2024-03-23T10:00:27;8.40;1.00
9699;DHT22;10089;47.876;8.346;2024-03-23T10:02:55;8.70;99.90
9699;DHT22;10089;47.876;8.346;2024-03-23T10:05:21;8.80;1.00
9699;DHT22;10089;47.876;8.346;2024-03-23T10:07:49;9.00;1.00
9699;DHT22;10089;47.876;8.346;2024-03-23T10:10:16;9.00;99.90
9699;DHT22;10089;47.876;8.346;2024-03-23T10:12:46;8.80;1.00
9699;DHT22;10089;47.876;8.346;2024-03-23T10:15:22;8.70;99.90
9699;DHT22;10089;47.876;8.346;2024-03-23T10:17:48;8.60;99.90
9699;DHT22;10089;47.876;8.346;2024-03-23T10:20:19;8.70;99.90
9699;DHT22;10089;47.876;8.346;2024-03-23T10:22:46;9.00;1.00
9699;DHT22;10089;47.876;8.346;2024-03-23T10:25:11;9.30;1.00
9699;DHT22;10089;47.876;8.346;2024-03-23T10:27:39;9.50;1.00
9699;DHT22;10089;47.876;8.346;2024-03-23T10:30:12;9.60;99.90
9699;DHT22;10089;47.876;8.346;2024-03-23T10:32:38;9.50;99.90
9699;DHT22;10089;47.876;8.346;2024-03-23T10:35:17;9.60;99.90
9699;DHT22;10089;47.876;8.346;2024-03-23T10:37:49;9.90;1.00
9699;DHT22;10089;47.876;8.346;2024-03-23T10:40:17;9.60;1.00
9699;DHT22;10089;47.876;8.346;2024-03-23T10:42:44;10.00;1.00
9699;DHT22;10089;47.876;8.346;2024-03-23T10:45:10;10.30;1.00
9699;DHT22;10089;47.876;8.346;2024-03-23T10:47:36;10.60;1.00
9699;DHT22;10089;47.876;8.346;2024-03-23T10:50:04;10.40;1.00
9699;DHT22;10089;47.876;8.346;2024-03-23T10:52:32;9.60;1.00
9699;DHT22;10089;47.876;8.346;2024-03-23T10:54:58;9.90;1.00
9699;DHT22;10089;47.876;8.346;2024-03-23T10:57:36;9.80;1.00
9699;DHT22;10089;47.876;8.346;2024-03-23T11:00:04;9.50;1.00
9699;DHT22;10089;47.876;8.346;2024-03-23T11:02:29;9.30;1.00
9699;DHT22;10089;47.876;8.346;2024-03-23T11:04:55;8.90;1.00
9699;DHT22;10089;47.876;8.346;2024-03-23T11:09:59;8.50;95.30
9699;DHT22;10089;47.876;8.346;2024-03-23T11:12:29;8.70;99.90
9699;DHT22;10089;47.876;8.346;2024-03-23T11:15:06;9.00;1.00
9699;DHT22;10089;47.876;8.346;2024-03-23T11:17:36;8.80;99.90
9699;DHT22;10089;47.876;8.346;2024-03-23T11:20:06;8.70;99.90
9699;DHT22;10089;47.876;8.346;2024-03-23T11:25:24;9.30;99.90
9699;DHT22;10089;47.876;8.346;2024-03-23T11:27:57;9.30;99.90
9699;DHT22;10089;47.876;8.346;2024-03-23T11:32:50;7.80;99.90
9699;DHT22;10089;47.876;8.346;2024-03-23T11:40:28;5.50;1.00
9699;DHT22;10089;47.876;8.346;2024-03-23T11:43:02;5.50;1.00
9699;DHT22;10089;47.876;8.346;2024-03-23T11:45:28;5.90;1.00
9699;DHT22;10089;47.876;8.346;2024-03-23T11:48:13;6.00;99.90
9699;DHT22;10089;47.876;8.346;2024-03-23T11:50:43;6.30;1.00
9699;DHT22;10089;47.876;8.346;2024-03-23T11:53:23;6.00;1.00
9699;DHT22;10089;47.876;8.346;2024-03-23T11:55:51;5.70;99.90
9699;DHT22;10089;47.876;8.346;2024-03-23T11:58:21;5.80;1.00
9699;DHT22;10089;47.876;8.346;2024-03-23T12:01:01;5.70;1.00
9699;DHT22;10089;47.876;8.346;2024-03-23T12:03:28;5.80;1.00
9699;DHT22;10089;47.876;8.346;2024-03-23T12:05:55;5.50;1.00
9699;DHT22;10089;47.876;8.346;2024-03-23T12:13:31;6.10;99.90
9699;DHT22;10089;47.876;8.346;2024-03-23T12:16:29;6.00;25.00
9699;DHT22;10089;47.876;8.346;2024-03-23T12:19:05;6.20;1.00
9699;DHT22;10089;47.876;8.346;2024-03-23T12:21:31;6.10;99.90
9699;DHT22;10089;47.876;8.346;2024-03-23T12:23:56;6.00;99.90
9699;DHT22;10089;47.876;8.346;2024-03-23T12:26:22;6.10;1.00
9699;DHT22;10089;47.876;8.346;2024-03-23T12:28:48;6.20;1.00
9699;DHT22;10089;47.876;8.346;2024-03-23T12:31:14;6.50;99.90
9699;DHT22;10089;47.876;8.346;2024-03-23T12:33:39;6.80;1.00
9699;DHT22;10089;47.876;8.346;2024-03-23T12:36:05;7.10;1.00
9699;DHT22;10089;47.876;8.346;2024-03-23T12:38:31;7.20;99.90
9699;DHT22;10089;47.876;8.346;2024-03-23T12:40:56;7.20;1.00
9699;DHT22;10089;47.876;8.346;2024-03-23T12:43:22;7.10;1.00
9699;DHT22;10089;47.876;8.346;2024-03-23T12:45:48;7.30;1.00
9699;DHT22;10089;47.876;8.346;2024-03-23T12:48:14;7.40;1.00
9699;DHT22;10089;47.876;8.346;2024-03-23T12:50:40;7.40;1.00
9699;DHT22;10089;47.876;8.346;2024-03-23T12:53:05;7.60;1.00
9699;DHT22;10089;47.876;8.346;2024-03-23T12:55:31;7.70;1.00
9699;DHT22;10089;47.876;8.346;2024-03-23T12:57:57;8.00;1.00
9699;DHT22;10089;47.876;8.346;2024-03-23T13:00:22;8.00;99.90
9699;DHT22;10089;47.876;8.346;2024-03-23T13:02:48;7.90;99.90
9699;DHT22;10089;47.876;8.346;2024-03-23T13:05:14;8.00;99.90
9699;DHT22;10089;47.876;8.346;2024-03-23T13:07:39;8.00;99.90
9699;DHT22;10089;47.876;8.346;2024-03-23T13:10:05;8.00;99.90
9699;DHT22;10089;47.876;8.346;2024-03-23T13:12:32;7.80;99.90
9699;DHT22;10089;47.876;8.346;2024-03-23T13:15:01;7.40;99.90
9699;DHT22;10089;47.876;8.346;2024-03-23T13:17:27;6.70;1.00
9699;DHT22;10089;47.876;8.346;2024-03-23T13:19:55;6.10;99.90
9699;DHT22;10089;47.876;8.346;2024-03-23T13:22:21;6.00;99.90
9699;DHT22;10089;47.876;8.346;2024-03-23T13:24:47;6.20;1.00
9699;DHT22;10089;47.876;8.346;2024-03-23T13:27:13;5.80;99.90
9699;DHT22;10089;47.876;8.346;2024-03-23T13:29:38;5.80;99.90
9699;DHT22;10089;47.876;8.346;2024-03-23T13:32:04;5.90;99.90
9699;DHT22;10089;47.876;8.346;2024-03-23T13:34:30;6.30;99.90
9699;DHT22;10089;47.876;8.346;2024-03-23T13:36:56;6.20;99.90
9699;DHT22;10089;47.876;8.346;2024-03-23T13:39:24;6.30;1.00
9699;DHT22;10089;47.876;8.346;2024-03-23T13:41:50;6.20;1.00
9699;DHT22;10089;47.876;8.346;2024-03-23T13:44:16;6.10;1.00
9699;DHT22;10089;47.876;8.346;2024-03-23T13:46:42;6.30;99.90
9699;DHT22;10089;47.876;8.346;2024-03-23T13:49:28;6.30;1.00
9699;DHT22;10089;47.876;8.346;2024-03-23T13:51:55;6.20;99.90
9699;DHT22;10089;47.876;8.346;2024-03-23T13:54:21;6.00;1.00
9699;DHT22;10089;47.876;8.346;2024-03-23T13:56:55;5.90;1.00
9699;DHT22;10089;47.876;8.346;2024-03-23T13:59:21;5.70;1.00
9699;DHT22;10089;47.876;8.346;2024-03-23T14:01:48;5.50;1.00
9699;DHT22;10089;47.876;8.346;2024-03-23T14:04:14;4.90;1.00
9699;DHT22;10089;47.876;8.346;2024-03-23T14:06:42;5.10;1.00
9699;DHT22;10089;47.876;8.346;2024-03-23T14:09:08;5.50;99.90
9699;DHT22;10089;47.876;8.346;2024-03-23T14:11:36;5.90;56.40
9699;DHT22;10089;47.876;8.346;2024-03-23T14:14:03;6.00;99.90
9699;DHT22;10089;47.876;8.346;2024-03-23T14:16:30;6.30;1.00
9699;DHT22;10089;47.876;8.346;2024-03-23T14:18:56;6.20;99.90
9699;DHT22;10089;47.876;8.346;2024-03-23T14:21:21;6.20;99.90
9699;DHT22;10089;47.876;8.346;2024-03-23T14:23:47;6.00;99.90
9699;DHT22;10089;47.876;8.346;2024-03-23T14:26:12;5.90;99.90
9699;DHT22;10089;47.876;8.346;2024-03-23T14:28:38;6.00;1.00
9699;DHT22;10089;47.876;8.346;2024-03-23T14:31:04;6.10;99.90
9699;DHT22;10089;47.876;8.346;2024-03-23T14:33:39;6.30;99.90
9699;DHT22;10089;47.876;8.346;2024-03-23T14:36:10;6.40;1.00
9699;DHT22;10089;47.876;8.346;2024-03-23T14:38:36;6.50;1.00
9699;DHT22;10089;47.876;8.346;2024-03-23T14:41:02;6.60;1.00
9699;DHT22;10089;47.876;8.346;2024-03-23T14:43:29;6.60;1.00
9699;DHT22;10089;47.876;8.346;2024-03-23T14:48:38;6.60;1.00
9699;DHT22;10089;47.876;8.346;2024-03-23T14:51:05;6.50;1.00
9699;DHT22;10089;47.876;8.346;2024-03-23T14:53:41;6.30;1.00
9699;DHT22;10089;47.876;8.346;2024-03-23T14:56:07;6.20;1.00
9699;DHT22;10089;47.876;8.346;2024-03-23T14:58:34;6.10;1.00
9699;DHT22;10089;47.876;8.346;2024-03-23T15:01:08;6.00;1.00
9699;DHT22;10089;47.876;8.346;2024-03-23T15:03:37;5.90;1.00
9699;DHT22;10089;47.876;8.346;2024-03-23T15:06:04;5.70;1.00
9699;DHT22;10089;47.876;8.346;2024-03-23T15:08:30;5.50;1.00
9699;DHT22;10089;47.876;8.346;2024-03-23T15:10:59;5.40;1.00
9699;DHT22;10089;47.876;8.346;2024-03-23T15:13:25;5.30;1.00
9699;DHT22;10089;47.876;8.346;2024-03-23T15:15:50;5.40;99.90
9699;DHT22;10089;47.876;8.346;2024-03-23T15:18:17;5.50;1.00
9699;DHT22;10089;47.876;8.346;2024-03-23T15:20:58;5.40;99.90
9699;DHT22;10089;47.876;8.346;2024-03-23T15:23:27;5.40;1.00
9699;DHT22;10089;47.876;8.346;2024-03-23T15:26:01;5.40;1.00
9699;DHT22;10089;47.876;8.346;2024-03-23T15:28:27;5.40;99.90
9699;DHT22;10089;47.876;8.346;2024-03-23T15:31:07;5.30;85.40
9699;DHT22;10089;47.876;8.346;2024-03-23T15:33:33;5.30;99.90
9699;DHT22;10089;47.876;8.346;2024-03-23T15:36:02;5.10;1.00
9699;DHT22;10089;47.876;8.346;2024-03-23T15:38:28;5.00;99.90
9699;DHT22;10089;47.876;8.346;2024-03-23T15:40:57;4.70;99.90
9699;DHT22;10089;47.876;8.346;2024-03-23T15:43:23;4.40;1.00
9699;DHT22;10089;47.876;8.346;2024-03-23T15:46:14;4.40;1.00
9699;DHT22;10089;47.876;8.346;2024-03-23T15:48:41;4.40;1.00
9699;DHT22;10089;47.876;8.346;2024-03-23T15:51:11;4.80;99.90
9699;DHT22;10089;47.876;8.346;2024-03-23T15:53:37;4.80;1.00
9699;DHT22;10089;47.876;8.346;2024-03-23T15:56:03;5.00;1.00
9699;DHT22;10089;47.876;8.346;2024-03-23T15:58:31;5.20;1.00
9699;DHT22;10089;47.876;8.346;2024-03-23T16:01:01;5.10;99.90
9699;DHT22;10089;47.876;8.346;2024-03-23T16:03:27;5.10;1.00
9699;DHT22;10089;47.876;8.346;2024-03-23T16:05:55;5.10;1.00
9699;DHT22;10089;47.876;8.346;2024-03-23T16:08:20;5.10;1.00
9699;DHT22;10089;47.876;8.346;2024-03-23T16:10:46;4.90;1.00
9699;DHT22;10089;47.876;8.346;2024-03-23T16:13:12;4.90;1.00
9699;DHT22;10089;47.876;8.346;2024-03-23T16:15:38;4.80;99.90
9699;DHT22;10089;47.876;8.346;2024-03-23T16:18:04;4.90;1.00
9699;DHT22;10089;47.876;8.346;2024-03-23T16:20:29;4.80;99.90
9699;DHT22;10089;47.876;8.346;2024-03-23T16:22:56;4.90;1.00
9699;DHT22;10089;47.876;8.346;2024-03-23T16:25:21;4.90;36.80
9699;DHT22;10089;47.876;8.346;2024-03-23T16:27:47;4.90;99.90
9699;DHT22;10089;47.876;8.346;2024-03-23T16:30:13;4.70;99.90
9699;DHT22;10089;47.876;8.346;2024-03-23T16:32:39;4.40;99.90
9699;DHT22;10089;47.876;8.346;2024-03-23T16:35:05;4.30;1.00
9699;DHT22;10089;47.876;8.346;2024-03-23T16:37:31;4.30;99.90
9699;DHT22;10089;47.876;8.346;2024-03-23T16:39:56;4.30;99.90
9699;DHT22;10089;47.876;8.346;2024-03-23T16:42:22;4.20;1.00
9699;DHT22;10089;47.876;8.346;2024-03-23T16:44:47;4.10;1.00
9699;DHT22;10089;47.876;8.346;2024-03-23T16:47:13;4.10;99.90
9699;DHT22;10089;47.876;8.346;2024-03-23T16:49:39;4.10;99.90
9699;DHT22;10089;47.876;8.346;2024-03-23T16:52:04;4.10;1.00
9699;DHT22;10089;47.876;8.346;2024-03-23T16:54:30;3.60;99.90
9699;DHT22;10089;47.876;8.346;2024-03-23T16:56:56;3.00;1.00
9699;DHT22;10089;47.876;8.346;2024-03-23T16:59:22;2.70;1.00
9699;DHT22;10089;47.876;8.346;2024-03-23T17:01:47;2.60;1.00
9699;DHT22;10089;47.876;8.346;2024-03-23T17:04:13;2.70;1.00
9699;DHT22;10089;47.876;8.346;2024-03-23T17:06:38;2.70;1.00
9699;DHT22;10089;47.876;8.346;2024-03-23T17:09:05;2.80;1.00
9699;DHT22;10089;47.876;8.346;2024-03-23T17:11:35;2.80;1.00
9699;DHT22;10089;47.876;8.346;2024-03-23T17:14:01;4.30;1.00
9699;DHT22;10089;47.876;8.346;2024-03-23T17:16:26;3.00;1.00
9699;DHT22;10089;47.876;8.346;2024-03-23T17:18:56;3.00;1.00
9699;DHT22;10089;47.876;8.346;2024-03-23T17:21:22;3.10;1.00
9699;DHT22;10089;47.876;8.346;2024-03-23T17:23:48;3.10;1.00